sensor_id;sensor_type;location;lat;lon;timestamp;P1;durP1;ratioP1;P2;durP2;ratioP2
27957;SDS011;15295;42.658;23.374;2024-02-14T00:03:39;12.50;;;7.45;;
27957;SDS011;15295;42.658;23.374;2024-02-14T00:06:05;10.82;;;7.47;;
27957;SDS011;15295;42.658;23.374;2024-02-14T00:08:34;12.00;;;7.57;;
27957;SDS011;15295;42.658;23.374;2024-02-14T00:11:00;9.68;;;7.22;;
27957;SDS011;15295;42.658;23.374;2024-02-14T00:13:27;12.43;;;7.95;;
27957;SDS011;15295;42.658;23.374;2024-02-14T00:15:53;12.38;;;8.43;;
27957;SDS011;15295;42.658;23.374;2024-02-14T00:18:34;12.07;;;8.30;;
27957;SDS011;15295;42.658;23.374;2024-02-14T00:21:00;11.27;;;7.72;;
27957;SDS011;15295;42.658;23.374;2024-02-14T00:23:25;11.57;;;7.65;;
27957;SDS011;15295;42.658;23.374;2024-02-14T00:25:51;11.55;;;7.53;;
27957;SDS011;15295;42.658;23.374;2024-02-14T00:28:19;12.30;;;9.10;;
27957;SDS011;15295;42.658;23.374;2024-02-14T00:30:44;12.98;;;8.57;;
27957;SDS011;15295;42.658;23.374;2024-02-14T00:33:10;10.93;;;7.72;;
27957;SDS011;15295;42.658;23.374;2024-02-14T00:35:36;14.05;;;8.75;;
27957;SDS011;15295;42.658;23.374;2024-02-14T00:38:03;11.57;;;7.88;;
27957;SDS011;15295;42.658;23.374;2024-02-14T00:40:32;9.95;;;7.32;;
27957;SDS011;15295;42.658;23.374;2024-02-14T00:42:57;14.07;;;8.18;;
27957;SDS011;15295;42.658;23.374;2024-02-14T00:45:23;11.00;;;8.25;;
27957;SDS011;15295;42.658;23.374;2024-02-14T00:48:01;12.38;;;7.95;;
27957;SDS011;15295;42.658;23.374;2024-02-14T00:53:04;12.18;;;8.30;;
27957;SDS011;15295;42.658;23.374;2024-02-14T00:55:30;12.30;;;8.13;;
27957;SDS011;15295;42.658;23.374;2024-02-14T00:57:57;14.85;;;8.50;;
27957;SDS011;15295;42.658;23.374;2024-02-14T01:00:23;11.23;;;7.78;;
27957;SDS011;15295;42.658;23.374;2024-02-14T01:02:48;11.90;;;8.07;;
27957;SDS011;15295;42.658;23.374;2024-02-14T01:05:24;12.43;;;8.60;;
27957;SDS011;15295;42.658;23.374;2024-02-14T01:10:20;11.57;;;8.05;;
27957;SDS011;15295;42.658;23.374;2024-02-14T01:12:46;11.85;;;8.32;;
27957;SDS011;15295;42.658;23.374;2024-02-14T01:15:16;13.52;;;8.73;;
27957;SDS011;15295;42.658;23.374;2024-02-14T01:17:42;14.73;;;9.23;;
27957;SDS011;15295;42.658;23.374;2024-02-14T01:20:08;12.48;;;8.77;;
27957;SDS011;15295;42.658;23.374;2024-02-14T01:22:34;13.32;;;9.23;;
27957;SDS011;15295;42.658;23.374;2024-02-14T01:25:01;13.35;;;9.15;;
27957;SDS011;15295;42.658;23.374;2024-02-14T01:27:29;14.40;;;8.65;;
27957;SDS011;15295;42.658;23.374;2024-02-14T01:29:55;14.73;;;9.25;;
27957;SDS011;15295;42.658;23.374;2024-02-14T01:32:22;13.15;;;9.55;;
27957;SDS011;15295;42.658;23.374;2024-02-14T01:34:48;14.02;;;9.30;;
27957;SDS011;15295;42.658;23.374;2024-02-14T01:37:18;12.73;;;8.60;;
27957;SDS011;15295;42.658;23.374;2024-02-14T01:39:46;13.70;;;9.55;;
27957;SDS011;15295;42.658;23.374;2024-02-14T01:42:11;15.23;;;9.18;;
27957;SDS011;15295;42.658;23.374;2024-02-14T01:44:55;14.00;;;9.65;;
27957;SDS011;15295;42.658;23.374;2024-02-14T01:47:21;14.40;;;9.32;;
27957;SDS011;15295;42.658;23.374;2024-02-14T01:52:40;13.48;;;9.30;;
27957;SDS011;15295;42.658;23.374;2024-02-14T01:57:50;13.40;;;8.88;;
27957;SDS011;15295;42.658;23.374;2024-02-14T02:00:18;13.57;;;9.27;;
27957;SDS011;15295;42.658;23.374;2024-02-14T02:02:44;13.70;;;9.40;;
27957;SDS011;15295;42.658;23.374;2024-02-14T02:05:25;14.20;;;9.90;;
27957;SDS011;15295;42.658;23.374;2024-02-14T02:08:00;12.20;;;9.10;;
27957;SDS011;15295;42.658;23.374;2024-02-14T02:10:41;14.38;;;9.35;;
27957;SDS011;15295;42.658;23.374;2024-02-14T02:13:34;13.75;;;9.70;;
27957;SDS011;15295;42.658;23.374;2024-02-14T02:16:06;13.80;;;9.35;;
27957;SDS011;15295;42.658;23.374;2024-02-14T02:21:05;16.20;;;9.73;;
27957;SDS011;15295;42.658;23.374;2024-02-14T02:23:35;16.48;;;9.48;;
27957;SDS011;15295;42.658;23.374;2024-02-14T02:26:02;13.90;;;9.77;;
27957;SDS011;15295;42.658;23.374;2024-02-14T02:28:46;16.55;;;9.52;;
27957;SDS011;15295;42.658;23.374;2024-02-14T02:31:16;12.93;;;9.43;;
27957;SDS011;15295;42.658;23.374;2024-02-14T02:33:46;14.40;;;10.23;;
27957;SDS011;15295;42.658;23.374;2024-02-14T02:36:24;14.48;;;9.40;;
27957;SDS011;15295;42.658;23.374;2024-02-14T02:39:02;12.80;;;7.05;;
27957;SDS011;15295;42.658;23.374;2024-02-14T02:41:30;12.63;;;8.77;;
27957;SDS011;15295;42.658;23.374;2024-02-14T02:44:04;13.35;;;9.05;;
27957;SDS011;15295;42.658;23.374;2024-02-14T02:46:32;12.25;;;8.75;;
27957;SDS011;15295;42.658;23.374;2024-02-14T02:51:51;13.68;;;9.48;;
27957;SDS011;15295;42.658;23.374;2024-02-14T02:54:17;14.57;;;9.70;;
27957;SDS011;15295;42.658;23.374;2024-02-14T02:56:51;13.90;;;9.82;;
27957;SDS011;15295;42.658;23.374;2024-02-14T02:59:20;16.77;;;10.70;;
27957;SDS011;15295;42.658;23.374;2024-02-14T03:01:47;16.05;;;9.82;;
27957;SDS011;15295;42.658;23.374;2024-02-14T03:04:27;14.82;;;10.35;;
27957;SDS011;15295;42.658;23.374;2024-02-14T03:07:02;15.10;;;9.77;;
27957;SDS011;15295;42.658;23.374;2024-02-14T03:09:54;14.10;;;9.90;;
27957;SDS011;15295;42.658;23.374;2024-02-14T03:12:39;17.77;;;10.25;;
27957;SDS011;15295;42.658;23.374;2024-02-14T03:15:23;14.43;;;9.75;;
27957;SDS011;15295;42.658;23.374;2024-02-14T03:17:59;17.77;;;10.73;;
27957;SDS011;15295;42.658;23.374;2024-02-14T03:20:26;16.30;;;10.32;;
27957;SDS011;15295;42.658;23.374;2024-02-14T03:23:00;15.93;;;10.18;;
27957;SDS011;15295;42.658;23.374;2024-02-14T03:25:46;13.57;;;9.98;;
27957;SDS011;15295;42.658;23.374;2024-02-14T03:28:13;14.90;;;10.68;;
27957;SDS011;15295;42.658;23.374;2024-02-14T03:30:52;14.00;;;10.30;;
27957;SDS011;15295;42.658;23.374;2024-02-14T03:33:18;14.27;;;9.88;;
27957;SDS011;15295;42.658;23.374;2024-02-14T03:35:44;15.93;;;10.70;;
27957;SDS011;15295;42.658;23.374;2024-02-14T03:38:10;16.25;;;11.00;;
27957;SDS011;15295;42.658;23.374;2024-02-14T03:43:21;14.90;;;10.52;;
27957;SDS011;15295;42.658;23.374;2024-02-14T03:45:48;16.67;;;10.75;;
27957;SDS011;15295;42.658;23.374;2024-02-14T03:48:14;16.58;;;10.77;;
27957;SDS011;15295;42.658;23.374;2024-02-14T03:51:00;15.02;;;10.15;;
27957;SDS011;15295;42.658;23.374;2024-02-14T03:53:34;17.05;;;10.90;;
27957;SDS011;15295;42.658;23.374;2024-02-14T03:55:59;14.18;;;10.75;;
27957;SDS011;15295;42.658;23.374;2024-02-14T03:58:25;18.75;;;11.38;;
27957;SDS011;15295;42.658;23.374;2024-02-14T04:01:04;15.20;;;10.73;;
27957;SDS011;15295;42.658;23.374;2024-02-14T04:03:30;14.57;;;9.98;;
27957;SDS011;15295;42.658;23.374;2024-02-14T04:05:56;15.30;;;9.93;;
27957;SDS011;15295;42.658;23.374;2024-02-14T04:08:22;17.15;;;11.05;;
27957;SDS011;15295;42.658;23.374;2024-02-14T04:10:55;14.85;;;10.23;;
27957;SDS011;15295;42.658;23.374;2024-02-14T04:13:21;16.83;;;11.20;;
27957;SDS011;15295;42.658;23.374;2024-02-14T04:15:54;18.92;;;10.88;;
27957;SDS011;15295;42.658;23.374;2024-02-14T04:23:19;17.80;;;10.98;;
27957;SDS011;15295;42.658;23.374;2024-02-14T04:25:45;17.60;;;11.05;;
27957;SDS011;15295;42.658;23.374;2024-02-14T04:28:10;15.30;;;11.35;;
27957;SDS011;15295;42.658;23.374;2024-02-14T04:30:38;16.30;;;11.57;;
27957;SDS011;15295;42.658;23.374;2024-02-14T04:33:15;18.70;;;11.35;;
27957;SDS011;15295;42.658;23.374;2024-02-14T04:35:43;18.38;;;11.73;;
27957;SDS011;15295;42.658;23.374;2024-02-14T04:38:09;16.27;;;10.55;;
27957;SDS011;15295;42.658;23.374;2024-02-14T04:40:34;15.32;;;10.10;;
27957;SDS011;15295;42.658;23.374;2024-02-14T04:43:00;17.23;;;11.52;;
27957;SDS011;15295;42.658;23.374;2024-02-14T04:45:25;19.80;;;11.77;;
27957;SDS011;15295;42.658;23.374;2024-02-14T04:47:51;18.02;;;12.15;;
27957;SDS011;15295;42.658;23.374;2024-02-14T04:52:58;23.67;;;12.48;;
27957;SDS011;15295;42.658;23.374;2024-02-14T04:55:27;17.85;;;12.27;;
27957;SDS011;15295;42.658;23.374;2024-02-14T04:57:58;20.45;;;12.30;;
27957;SDS011;15295;42.658;23.374;2024-02-14T05:00:24;20.55;;;13.75;;
27957;SDS011;15295;42.658;23.374;2024-02-14T05:02:49;19.05;;;12.32;;
27957;SDS011;15295;42.658;23.374;2024-02-14T05:05:16;19.92;;;12.63;;
27957;SDS011;15295;42.658;23.374;2024-02-14T05:07:41;22.08;;;13.30;;
27957;SDS011;15295;42.658;23.374;2024-02-14T05:10:07;18.13;;;12.57;;
27957;SDS011;15295;42.658;23.374;2024-02-14T05:12:33;20.98;;;13.55;;
27957;SDS011;15295;42.658;23.374;2024-02-14T05:15:03;20.90;;;13.30;;
27957;SDS011;15295;42.658;23.374;2024-02-14T05:17:29;20.00;;;13.48;;
27957;SDS011;15295;42.658;23.374;2024-02-14T05:19:55;25.92;;;14.07;;
27957;SDS011;15295;42.658;23.374;2024-02-14T05:22:23;21.35;;;14.82;;
27957;SDS011;15295;42.658;23.374;2024-02-14T05:24:52;22.45;;;14.55;;
27957;SDS011;15295;42.658;23.374;2024-02-14T05:27:18;23.10;;;14.27;;
27957;SDS011;15295;42.658;23.374;2024-02-14T05:29:43;26.13;;;14.50;;
27957;SDS011;15295;42.658;23.374;2024-02-14T05:32:23;25.83;;;15.05;;
27957;SDS011;15295;42.658;23.374;2024-02-14T05:34:50;19.02;;;14.02;;
27957;SDS011;15295;42.658;23.374;2024-02-14T05:37:16;20.20;;;14.57;;
27957;SDS011;15295;42.658;23.374;2024-02-14T05:39:42;20.73;;;14.18;;
27957;SDS011;15295;42.658;23.374;2024-02-14T05:42:07;22.35;;;15.27;;
27957;SDS011;15295;42.658;23.374;2024-02-14T05:44:33;24.60;;;15.70;;
27957;SDS011;15295;42.658;23.374;2024-02-14T05:46:59;22.10;;;15.50;;
27957;SDS011;15295;42.658;23.374;2024-02-14T05:49:25;22.60;;;15.93;;
27957;SDS011;15295;42.658;23.374;2024-02-14T05:51:53;22.98;;;14.82;;
27957;SDS011;15295;42.658;23.374;2024-02-14T05:54:19;21.52;;;14.60;;
27957;SDS011;15295;42.658;23.374;2024-02-14T05:56:45;24.40;;;15.30;;
27957;SDS011;15295;42.658;23.374;2024-02-14T05:59:12;24.10;;;14.57;;
27957;SDS011;15295;42.658;23.374;2024-02-14T06:01:38;22.35;;;14.98;;
27957;SDS011;15295;42.658;23.374;2024-02-14T06:04:12;20.52;;;14.68;;
27957;SDS011;15295;42.658;23.374;2024-02-14T06:06:38;26.27;;;15.35;;
27957;SDS011;15295;42.658;23.374;2024-02-14T06:09:05;22.73;;;15.15;;
27957;SDS011;15295;42.658;23.374;2024-02-14T06:11:53;22.58;;;15.55;;
27957;SDS011;15295;42.658;23.374;2024-02-14T06:14:38;21.38;;;13.80;;
27957;SDS011;15295;42.658;23.374;2024-02-14T06:17:10;19.58;;;13.93;;
27957;SDS011;15295;42.658;23.374;2024-02-14T06:19:37;24.63;;;14.70;;
27957;SDS011;15295;42.658;23.374;2024-02-14T06:22:15;23.50;;;15.05;;
27957;SDS011;15295;42.658;23.374;2024-02-14T06:24:40;22.38;;;14.50;;
27957;SDS011;15295;42.658;23.374;2024-02-14T06:27:09;21.13;;;13.00;;
27957;SDS011;15295;42.658;23.374;2024-02-14T06:29:43;21.70;;;14.02;;
27957;SDS011;15295;42.658;23.374;2024-02-14T06:32:13;24.88;;;13.25;;
27957;SDS011;15295;42.658;23.374;2024-02-14T06:34:41;19.85;;;12.70;;
27957;SDS011;15295;42.658;23.374;2024-02-14T06:37:12;21.35;;;13.32;;
27957;SDS011;15295;42.658;23.374;2024-02-14T06:39:41;20.30;;;13.45;;
27957;SDS011;15295;42.658;23.374;2024-02-14T06:42:09;20.65;;;13.32;;
27957;SDS011;15295;42.658;23.374;2024-02-14T06:44:36;21.10;;;13.55;;
27957;SDS011;15295;42.658;23.374;2024-02-14T06:47:02;20.52;;;13.60;;
27957;SDS011;15295;42.658;23.374;2024-02-14T06:49:36;24.13;;;13.32;;
27957;SDS011;15295;42.658;23.374;2024-02-14T06:52:14;19.60;;;13.25;;
27957;SDS011;15295;42.658;23.374;2024-02-14T06:54:39;19.30;;;12.73;;
27957;SDS011;15295;42.658;23.374;2024-02-14T06:57:05;22.27;;;12.85;;
27957;SDS011;15295;42.658;23.374;2024-02-14T06:59:32;23.95;;;13.43;;
27957;SDS011;15295;42.658;23.374;2024-02-14T07:02:09;16.58;;;11.77;;
27957;SDS011;15295;42.658;23.374;2024-02-14T07:04:40;20.35;;;12.60;;
27957;SDS011;15295;42.658;23.374;2024-02-14T07:07:06;19.38;;;12.25;;
27957;SDS011;15295;42.658;23.374;2024-02-14T07:09:31;19.40;;;12.57;;
27957;SDS011;15295;42.658;23.374;2024-02-14T07:12:00;18.33;;;12.50;;
27957;SDS011;15295;42.658;23.374;2024-02-14T07:14:26;18.00;;;11.38;;
27957;SDS011;15295;42.658;23.374;2024-02-14T07:17:02;16.88;;;11.35;;
27957;SDS011;15295;42.658;23.374;2024-02-14T07:19:33;17.98;;;10.70;;
27957;SDS011;15295;42.658;23.374;2024-02-14T07:22:04;21.73;;;11.27;;
27957;SDS011;15295;42.658;23.374;2024-02-14T07:24:40;22.25;;;11.50;;
27957;SDS011;15295;42.658;23.374;2024-02-14T07:27:06;20.25;;;11.70;;
27957;SDS011;15295;42.658;23.374;2024-02-14T07:29:31;17.63;;;10.93;;
27957;SDS011;15295;42.658;23.374;2024-02-14T07:31:57;22.45;;;12.32;;
27957;SDS011;15295;42.658;23.374;2024-02-14T07:34:24;17.10;;;10.75;;
27957;SDS011;15295;42.658;23.374;2024-02-14T07:36:53;18.40;;;11.15;;
27957;SDS011;15295;42.658;23.374;2024-02-14T07:39:32;26.00;;;14.82;;
27957;SDS011;15295;42.658;23.374;2024-02-14T07:42:04;16.77;;;11.23;;
27957;SDS011;15295;42.658;23.374;2024-02-14T07:44:36;28.88;;;13.90;;
27957;SDS011;15295;42.658;23.374;2024-02-14T07:47:07;25.80;;;13.90;;
27957;SDS011;15295;42.658;23.374;2024-02-14T07:49:33;19.98;;;11.90;;
27957;SDS011;15295;42.658;23.374;2024-02-14T07:51:58;16.88;;;11.35;;
27957;SDS011;15295;42.658;23.374;2024-02-14T07:54:26;19.27;;;11.43;;
27957;SDS011;15295;42.658;23.374;2024-02-14T07:56:51;17.08;;;10.45;;
27957;SDS011;15295;42.658;23.374;2024-02-14T07:59:17;16.42;;;11.65;;
27957;SDS011;15295;42.658;23.374;2024-02-14T08:01:47;21.63;;;11.20;;
27957;SDS011;15295;42.658;23.374;2024-02-14T08:04:33;19.15;;;11.40;;
27957;SDS011;15295;42.658;23.374;2024-02-14T08:07:24;22.73;;;14.27;;
27957;SDS011;15295;42.658;23.374;2024-02-14T08:10:08;17.73;;;12.27;;
27957;SDS011;15295;42.658;23.374;2024-02-14T08:12:34;18.55;;;12.07;;
27957;SDS011;15295;42.658;23.374;2024-02-14T08:15:00;18.77;;;12.43;;
27957;SDS011;15295;42.658;23.374;2024-02-14T08:17:29;18.10;;;10.88;;
27957;SDS011;15295;42.658;23.374;2024-02-14T08:19:55;15.93;;;10.63;;
27957;SDS011;15295;42.658;23.374;2024-02-14T08:22:21;20.58;;;12.80;;
27957;SDS011;15295;42.658;23.374;2024-02-14T08:27:16;17.40;;;10.95;;
27957;SDS011;15295;42.658;23.374;2024-02-14T08:29:41;12.88;;;9.68;;
27957;SDS011;15295;42.658;23.374;2024-02-14T08:32:06;19.95;;;10.85;;
27957;SDS011;15295;42.658;23.374;2024-02-14T08:34:50;18.50;;;10.10;;
27957;SDS011;15295;42.658;23.374;2024-02-14T08:37:16;17.35;;;10.90;;
27957;SDS011;15295;42.658;23.374;2024-02-14T08:39:42;28.48;;;17.83;;
27957;SDS011;15295;42.658;23.374;2024-02-14T08:42:07;19.85;;;10.48;;
27957;SDS011;15295;42.658;23.374;2024-02-14T08:44:34;18.38;;;10.93;;
27957;SDS011;15295;42.658;23.374;2024-02-14T08:47:06;25.90;;;16.17;;
27957;SDS011;15295;42.658;23.374;2024-02-14T08:49:45;15.65;;;10.00;;
27957;SDS011;15295;42.658;23.374;2024-02-14T08:52:22;22.92;;;11.13;;
27957;SDS011;15295;42.658;23.374;2024-02-14T08:54:52;18.00;;;11.15;;
27957;SDS011;15295;42.658;23.374;2024-02-14T08:57:18;24.10;;;14.73;;
27957;SDS011;15295;42.658;23.374;2024-02-14T08:59:59;56.17;;;24.23;;
27957;SDS011;15295;42.658;23.374;2024-02-14T09:02:30;23.33;;;16.15;;
27957;SDS011;15295;42.658;23.374;2024-02-14T09:05:01;34.08;;;17.80;;
27957;SDS011;15295;42.658;23.374;2024-02-14T09:07:28;28.70;;;13.00;;
27957;SDS011;15295;42.658;23.374;2024-02-14T09:09:54;35.65;;;22.00;;
27957;SDS011;15295;42.658;23.374;2024-02-14T09:12:22;19.70;;;12.65;;
27957;SDS011;15295;42.658;23.374;2024-02-14T09:14:53;18.98;;;12.13;;
27957;SDS011;15295;42.658;23.374;2024-02-14T09:17:30;12.40;;;8.70;;
27957;SDS011;15295;42.658;23.374;2024-02-14T09:20:05;20.85;;;12.73;;
27957;SDS011;15295;42.658;23.374;2024-02-14T09:22:35;17.85;;;10.00;;
27957;SDS011;15295;42.658;23.374;2024-02-14T09:25:09;20.42;;;11.30;;
27957;SDS011;15295;42.658;23.374;2024-02-14T09:27:36;17.20;;;11.40;;
27957;SDS011;15295;42.658;23.374;2024-02-14T09:30:02;18.20;;;11.48;;
27957;SDS011;15295;42.658;23.374;2024-02-14T09:32:32;15.20;;;9.13;;
27957;SDS011;15295;42.658;23.374;2024-02-14T09:34:59;15.10;;;10.00;;
27957;SDS011;15295;42.658;23.374;2024-02-14T09:37:26;16.27;;;9.50;;
27957;SDS011;15295;42.658;23.374;2024-02-14T09:39:58;17.65;;;10.52;;
27957;SDS011;15295;42.658;23.374;2024-02-14T09:42:28;18.08;;;11.32;;
27957;SDS011;15295;42.658;23.374;2024-02-14T09:45:07;13.00;;;9.73;;
27957;SDS011;15295;42.658;23.374;2024-02-14T09:47:33;19.05;;;11.50;;
27957;SDS011;15295;42.658;23.374;2024-02-14T09:49:59;20.00;;;11.23;;
27957;SDS011;15295;42.658;23.374;2024-02-14T09:52:33;20.10;;;9.98;;
27957;SDS011;15295;42.658;23.374;2024-02-14T09:55:00;17.08;;;11.52;;
27957;SDS011;15295;42.658;23.374;2024-02-14T09:57:32;14.48;;;9.55;;
27957;SDS011;15295;42.658;23.374;2024-02-14T10:00:01;14.90;;;9.52;;
27957;SDS011;15295;42.658;23.374;2024-02-14T10:02:30;19.80;;;10.93;;
27957;SDS011;15295;42.658;23.374;2024-02-14T10:04:58;18.38;;;11.60;;
27957;SDS011;15295;42.658;23.374;2024-02-14T10:07:23;17.38;;;10.25;;
27957;SDS011;15295;42.658;23.374;2024-02-14T10:09:50;15.18;;;9.73;;
27957;SDS011;15295;42.658;23.374;2024-02-14T10:12:22;15.98;;;10.65;;
27957;SDS011;15295;42.658;23.374;2024-02-14T10:15:09;14.25;;;10.43;;
27957;SDS011;15295;42.658;23.374;2024-02-14T10:17:34;16.27;;;10.68;;
27957;SDS011;15295;42.658;23.374;2024-02-14T10:20:01;16.42;;;10.30;;
27957;SDS011;15295;42.658;23.374;2024-02-14T10:22:37;14.88;;;9.77;;
27957;SDS011;15295;42.658;23.374;2024-02-14T10:25:04;15.85;;;9.40;;
27957;SDS011;15295;42.658;23.374;2024-02-14T10:27:37;23.92;;;11.02;;
27957;SDS011;15295;42.658;23.374;2024-02-14T10:30:06;14.52;;;9.68;;
27957;SDS011;15295;42.658;23.374;2024-02-14T10:32:37;23.85;;;14.57;;
27957;SDS011;15295;42.658;23.374;2024-02-14T10:35:07;20.25;;;11.20;;
27957;SDS011;15295;42.658;23.374;2024-02-14T10:37:34;14.95;;;9.82;;
27957;SDS011;15295;42.658;23.374;2024-02-14T10:40:02;18.15;;;10.38;;
27957;SDS011;15295;42.658;23.374;2024-02-14T10:42:31;15.48;;;9.18;;
27957;SDS011;15295;42.658;23.374;2024-02-14T10:45:01;14.70;;;9.00;;
27957;SDS011;15295;42.658;23.374;2024-02-14T10:47:32;22.85;;;14.63;;
27957;SDS011;15295;42.658;23.374;2024-02-14T10:50:08;18.83;;;10.43;;
27957;SDS011;15295;42.658;23.374;2024-02-14T10:52:38;16.70;;;9.90;;
27957;SDS011;15295;42.658;23.374;2024-02-14T10:55:06;14.50;;;9.18;;
27957;SDS011;15295;42.658;23.374;2024-02-14T10:57:45;18.23;;;11.07;;
27957;SDS011;15295;42.658;23.374;2024-02-14T11:00:12;18.63;;;10.40;;
27957;SDS011;15295;42.658;23.374;2024-02-14T11:02:41;16.05;;;9.15;;
27957;SDS011;15295;42.658;23.374;2024-02-14T11:05:15;15.57;;;9.63;;
27957;SDS011;15295;42.658;23.374;2024-02-14T11:10:18;22.00;;;10.85;;
27957;SDS011;15295;42.658;23.374;2024-02-14T11:12:46;23.50;;;12.70;;
27957;SDS011;15295;42.658;23.374;2024-02-14T11:15:24;19.27;;;11.52;;
27957;SDS011;15295;42.658;23.374;2024-02-14T11:18:03;14.27;;;9.10;;
27957;SDS011;15295;42.658;23.374;2024-02-14T11:20:36;18.08;;;8.98;;
27957;SDS011;15295;42.658;23.374;2024-02-14T11:23:03;17.90;;;12.10;;
27957;SDS011;15295;42.658;23.374;2024-02-14T11:25:36;30.75;;;17.38;;
27957;SDS011;15295;42.658;23.374;2024-02-14T11:31:07;18.30;;;11.18;;
27957;SDS011;15295;42.658;23.374;2024-02-14T11:33:39;29.67;;;16.40;;
27957;SDS011;15295;42.658;23.374;2024-02-14T11:36:11;19.55;;;12.23;;
27957;SDS011;15295;42.658;23.374;2024-02-14T11:38:40;13.80;;;9.73;;
27957;SDS011;15295;42.658;23.374;2024-02-14T11:41:33;19.08;;;11.07;;
27957;SDS011;15295;42.658;23.374;2024-02-14T11:44:06;21.08;;;11.10;;
27957;SDS011;15295;42.658;23.374;2024-02-14T11:46:41;32.38;;;17.08;;
27957;SDS011;15295;42.658;23.374;2024-02-14T11:49:28;22.30;;;13.35;;
27957;SDS011;15295;42.658;23.374;2024-02-14T11:51:54;20.58;;;10.43;;
27957;SDS011;15295;42.658;23.374;2024-02-14T11:54:19;14.90;;;9.73;;
27957;SDS011;15295;42.658;23.374;2024-02-14T11:56:46;14.07;;;8.95;;
27957;SDS011;15295;42.658;23.374;2024-02-14T11:59:15;17.55;;;9.13;;
27957;SDS011;15295;42.658;23.374;2024-02-14T12:01:44;19.67;;;12.73;;
27957;SDS011;15295;42.658;23.374;2024-02-14T12:04:11;16.33;;;9.23;;
27957;SDS011;15295;42.658;23.374;2024-02-14T12:06:38;14.90;;;8.32;;
27957;SDS011;15295;42.658;23.374;2024-02-14T12:09:06;12.88;;;8.45;;
27957;SDS011;15295;42.658;23.374;2024-02-14T12:11:37;14.93;;;8.73;;
27957;SDS011;15295;42.658;23.374;2024-02-14T12:14:07;14.88;;;8.27;;
27957;SDS011;15295;42.658;23.374;2024-02-14T12:16:34;14.05;;;7.97;;
27957;SDS011;15295;42.658;23.374;2024-02-14T12:19:14;12.23;;;8.07;;
27957;SDS011;15295;42.658;23.374;2024-02-14T12:21:42;14.55;;;8.65;;
27957;SDS011;15295;42.658;23.374;2024-02-14T12:24:11;16.15;;;8.32;;
27957;SDS011;15295;42.658;23.374;2024-02-14T12:26:39;12.65;;;8.05;;
27957;SDS011;15295;42.658;23.374;2024-02-14T12:29:07;16.63;;;9.35;;
27957;SDS011;15295;42.658;23.374;2024-02-14T12:31:34;12.52;;;8.27;;
27957;SDS011;15295;42.658;23.374;2024-02-14T12:34:06;15.43;;;8.82;;
27957;SDS011;15295;42.658;23.374;2024-02-14T12:36:34;16.40;;;9.18;;
27957;SDS011;15295;42.658;23.374;2024-02-14T12:39:03;14.05;;;8.95;;
27957;SDS011;15295;42.658;23.374;2024-02-14T12:41:29;14.20;;;9.07;;
27957;SDS011;15295;42.658;23.374;2024-02-14T12:44:12;15.10;;;8.20;;
27957;SDS011;15295;42.658;23.374;2024-02-14T12:46:37;13.48;;;9.27;;
27957;SDS011;15295;42.658;23.374;2024-02-14T12:49:11;13.00;;;8.20;;
27957;SDS011;15295;42.658;23.374;2024-02-14T12:52:00;12.02;;;8.15;;
27957;SDS011;15295;42.658;23.374;2024-02-14T12:55:03;13.30;;;8.38;;
27957;SDS011;15295;42.658;23.374;2024-02-14T12:57:32;15.25;;;9.25;;
27957;SDS011;15295;42.658;23.374;2024-02-14T13:00:10;17.05;;;8.57;;
27957;SDS011;15295;42.658;23.374;2024-02-14T13:02:56;15.43;;;8.38;;
27957;SDS011;15295;42.658;23.374;2024-02-14T13:05:26;14.77;;;9.18;;
27957;SDS011;15295;42.658;23.374;2024-02-14T13:07:54;16.23;;;8.27;;
27957;SDS011;15295;42.658;23.374;2024-02-14T13:10:22;15.93;;;8.50;;
27957;SDS011;15295;42.658;23.374;2024-02-14T13:12:50;12.95;;;8.35;;
27957;SDS011;15295;42.658;23.374;2024-02-14T13:15:16;17.85;;;8.25;;
27957;SDS011;15295;42.658;23.374;2024-02-14T13:18:10;17.20;;;9.52;;
27957;SDS011;15295;42.658;23.374;2024-02-14T13:20:46;16.00;;;8.90;;
27957;SDS011;15295;42.658;23.374;2024-02-14T13:23:37;14.93;;;8.45;;
27957;SDS011;15295;42.658;23.374;2024-02-14T13:26:23;14.88;;;8.05;;
27957;SDS011;15295;42.658;23.374;2024-02-14T13:29:00;16.02;;;9.35;;
27957;SDS011;15295;42.658;23.374;2024-02-14T13:31:57;15.38;;;8.60;;
27957;SDS011;15295;42.658;23.374;2024-02-14T13:34:24;15.93;;;8.70;;
27957;SDS011;15295;42.658;23.374;2024-02-14T13:36:53;18.92;;;9.50;;
27957;SDS011;15295;42.658;23.374;2024-02-14T13:39:20;14.27;;;7.72;;
27957;SDS011;15295;42.658;23.374;2024-02-14T13:41:46;16.73;;;8.82;;
27957;SDS011;15295;42.658;23.374;2024-02-14T13:44:12;15.80;;;8.05;;
27957;SDS011;15295;42.658;23.374;2024-02-14T13:46:43;12.73;;;8.05;;
27957;SDS011;15295;42.658;23.374;2024-02-14T13:49:38;13.60;;;8.73;;
27957;SDS011;15295;42.658;23.374;2024-02-14T13:52:04;12.95;;;8.57;;
27957;SDS011;15295;42.658;23.374;2024-02-14T13:54:38;14.40;;;8.10;;
27957;SDS011;15295;42.658;23.374;2024-02-14T13:57:04;18.25;;;8.60;;
27957;SDS011;15295;42.658;23.374;2024-02-14T13:59:37;15.32;;;9.05;;
27957;SDS011;15295;42.658;23.374;2024-02-14T14:02:04;13.25;;;8.45;;
27957;SDS011;15295;42.658;23.374;2024-02-14T14:04:38;23.08;;;9.85;;
27957;SDS011;15295;42.658;23.374;2024-02-14T14:07:10;16.33;;;9.48;;
27957;SDS011;15295;42.658;23.374;2024-02-14T14:09:42;17.38;;;9.52;;
27957;SDS011;15295;42.658;23.374;2024-02-14T14:12:14;14.85;;;7.90;;
27957;SDS011;15295;42.658;23.374;2024-02-14T14:14:41;16.80;;;10.05;;
27957;SDS011;15295;42.658;23.374;2024-02-14T14:17:10;15.30;;;8.63;;
27957;SDS011;15295;42.658;23.374;2024-02-14T14:19:57;13.23;;;8.43;;
27957;SDS011;15295;42.658;23.374;2024-02-14T14:22:25;15.07;;;9.32;;
27957;SDS011;15295;42.658;23.374;2024-02-14T14:25:07;11.80;;;7.60;;
27957;SDS011;15295;42.658;23.374;2024-02-14T14:27:37;12.35;;;7.88;;
27957;SDS011;15295;42.658;23.374;2024-02-14T14:30:15;18.55;;;8.35;;
27957;SDS011;15295;42.658;23.374;2024-02-14T14:32:57;16.73;;;9.50;;
27957;SDS011;15295;42.658;23.374;2024-02-14T14:35:55;14.90;;;7.70;;
27957;SDS011;15295;42.658;23.374;2024-02-14T14:38:46;18.15;;;9.25;;
27957;SDS011;15295;42.658;23.374;2024-02-14T14:41:17;16.88;;;8.93;;
27957;SDS011;15295;42.658;23.374;2024-02-14T14:43:57;17.35;;;9.15;;
27957;SDS011;15295;42.658;23.374;2024-02-14T14:46:33;15.85;;;8.88;;
27957;SDS011;15295;42.658;23.374;2024-02-14T14:49:20;14.45;;;8.27;;
27957;SDS011;15295;42.658;23.374;2024-02-14T14:51:47;19.95;;;8.18;;
27957;SDS011;15295;42.658;23.374;2024-02-14T14:54:22;13.25;;;7.80;;
27957;SDS011;15295;42.658;23.374;2024-02-14T14:56:55;16.55;;;8.27;;
27957;SDS011;15295;42.658;23.374;2024-02-14T14:59:49;33.42;;;18.25;;
27957;SDS011;15295;42.658;23.374;2024-02-14T15:02:41;17.15;;;8.57;;
27957;SDS011;15295;42.658;23.374;2024-02-14T15:06:00;18.67;;;9.27;;
27957;SDS011;15295;42.658;23.374;2024-02-14T15:08:30;15.82;;;8.77;;
27957;SDS011;15295;42.658;23.374;2024-02-14T15:11:03;16.00;;;7.38;;
27957;SDS011;15295;42.658;23.374;2024-02-14T15:13:30;20.52;;;9.70;;
27957;SDS011;15295;42.658;23.374;2024-02-14T15:16:03;12.70;;;7.45;;